Time;durP1;ratioP1;P1;durP2;ratioP2;P2;SDS_P1;SDS_P2;PMS_P1;PMS_P2;Temp;Humidity;BMP_temperature;BMP_pressure;BME280_temperature;BME280_humidity;BME280_pressure;Samples;Min_cycle;Max_cycle;Signal;HPM_P1;HPM_P2
2021/12/17 00:00:45;;;;;;;36.92;20.08;;;;;;;4.57;100.00;102646.41;20873739;28;20045;-70
2021/12/17 00:10:49;;;;;;;37.70;21.05;;;;;;;4.60;100.00;102646.56;20869680;28;20459;-69
2021/12/17 01:01:58;;;;;;;33.88;18.55;;;;;;;4.81;100.00;102607.66;20867995;28;20110;-71
2021/12/17 01:12:00;;;;;;;30.48;18.45;;;;;;;4.87;100.00;102592.34;20867014;28;20127;-69
2021/12/17 01:42:25;;;;;;;33.45;19.35;;;;;;;4.97;100.00;102597.94;20864227;28;20383;-69
2021/12/17 02:02:50;;;;;;;29.85;18.05;;;;;;;4.92;100.00;102602.03;20863379;28;20053;-70
2021/12/17 02:33:20;;;;;;;34.85;18.75;;;;;;;5.01;100.00;102582.56;20861838;28;20045;-70
2021/12/17 02:53:25;;;;;;;36.30;18.45;;;;;;;4.95;100.00;102571.03;20860786;28;20048;-70
2021/12/17 03:03:30;;;;;;;31.30;17.77;;;;;;;4.82;100.00;102557.53;20857166;28;20525;-70
2021/12/17 03:13:35;;;;;;;29.33;17.75;;;;;;;4.89;100.00;102566.47;20858284;28;20446;-70
2021/12/17 03:33:43;;;;;;;31.03;18.03;;;;;;;4.96;100.00;102572.81;20857130;28;20358;-70
2021/12/17 03:43:46;;;;;;;34.55;18.35;;;;;;;4.98;100.00;102572.03;20855752;28;20049;-70
2021/12/17 03:53:50;;;;;;;32.97;18.27;;;;;;;5.15;100.00;102575.34;20857145;28;20490;-69
2021/12/17 04:03:52;;;;;;;32.95;19.08;;;;;;;5.10;100.00;102569.97;20853414;28;20045;-69
2021/12/17 04:13:56;;;;;;;37.33;19.63;;;;;;;5.21;99.83;102575.59;20854259;28;20477;-70
2021/12/17 04:23:58;;;;;;;34.57;17.47;;;;;;;5.25;100.00;102572.28;20859192;28;20494;-70
2021/12/17 04:33:59;;;;;;;30.85;18.48;;;;;;;5.30;100.00;102562.97;20871475;28;20415;-70
2021/12/17 04:44:18;;;;;;;42.90;19.08;;;;;;;5.39;99.83;102559.88;20867679;28;20457;-70
2021/12/17 05:04:41;;;;;;;31.83;19.48;;;;;;;5.47;100.00;102542.00;20866982;28;20418;-70
2021/12/17 05:25:03;;;;;;;32.63;18.13;;;;;;;5.57;100.00;102524.22;20865147;28;20046;-71
2021/12/17 05:35:05;;;;;;;35.05;18.98;;;;;;;5.54;100.00;102515.41;20864428;28;20045;-70
2021/12/17 05:45:20;;;;;;;32.03;17.25;;;;;;;5.51;100.00;102517.88;20864806;28;20091;-71
2021/12/17 05:55:22;;;;;;;37.15;20.00;;;;;;;5.55;100.00;102519.78;20862016;28;20061;-68
2021/12/17 06:05:24;;;;;;;34.85;21.35;;;;;;;5.50;100.00;102523.91;20864880;28;20052;-70
2021/12/17 06:15:26;;;;;;;38.97;21.55;;;;;;;5.58;100.00;102536.38;20859597;28;20049;-70
2021/12/17 06:25:27;;;;;;;34.75;18.50;;;;;;;5.51;100.00;102538.66;20859924;28;20462;-70
2021/12/17 06:35:29;;;;;;;34.33;19.20;;;;;;;5.50;100.00;102536.91;20859321;28;20049;-71
2021/12/17 07:05:59;;;;;;;30.25;16.95;;;;;;;5.74;97.57;102558.66;20857240;28;20045;-70
2021/12/17 07:47:03;;;;;;;23.15;13.05;;;;;;;6.02;93.82;102599.63;20828581;28;20041;-71
2021/12/17 07:57:05;;;;;;;19.85;11.20;;;;;;;6.01;93.74;102594.38;20882447;28;20048;-71
2021/12/17 08:07:09;;;;;;;20.80;11.60;;;;;;;6.10;92.91;102611.22;20880775;28;20076;-71
2021/12/17 08:27:45;;;;;;;20.42;11.95;;;;;;;6.22;91.85;102610.78;20936497;28;20043;-68
2021/12/17 08:37:47;;;;;;;;;;;;;;;6.27;91.96;102613.56;20951109;28;20107;-69
2021/12/17 08:47:50;;;;;;;19.80;10.88;;;;;;;6.34;90.20;102626.88;20885059;28;20253;-69
2021/12/17 08:57:51;;;;;;;20.40;11.25;;;;;;;6.44;88.92;102620.28;20861028;28;20068;-72
2021/12/17 09:07:53;;;;;;;16.35;8.77;;;;;;;6.66;86.07;102627.16;20859684;28;20046;-72
2021/12/17 09:17:55;;;;;;;55.38;9.73;;;;;;;6.78;85.93;102629.31;20864796;28;20057;-72
2021/12/17 09:27:56;;;;;;;15.10;8.85;;;;;;;6.85;84.97;102637.41;20857842;28;20083;-71
2021/12/17 09:37:58;;;;;;;12.25;6.93;;;;;;;6.94;82.65;102626.41;20859002;28;20103;-71
2021/12/17 09:48:00;;;;;;;12.80;7.10;;;;;;;7.17;81.66;102624.59;20855755;28;20045;-71
2021/12/17 09:58:02;;;;;;;10.52;6.38;;;;;;;7.17;81.25;102628.06;20926909;28;20448;-71
2021/12/17 10:08:12;;;;;;;14.60;7.70;;;;;;;7.35;80.98;102625.22;20941270;28;20048;-70
2021/12/17 10:18:15;;;;;;;12.38;6.82;;;;;;;7.49;80.56;102619.56;20938470;28;20094;-69
2021/12/17 10:28:17;;;;;;;13.60;7.38;;;;;;;7.46;81.07;102617.75;20886992;28;20053;-69
2021/12/17 10:38:24;;;;;;;12.80;7.20;;;;;;;7.57;80.50;102607.66;20853343;28;20498;-70
2021/12/17 10:48:30;;;;;;;12.77;7.55;;;;;;;7.63;79.95;102592.22;20852767;28;20425;-70
2021/12/17 10:58:31;;;;;;;15.52;8.43;;;;;;;7.69;79.77;102585.47;20857106;28;20102;-69
2021/12/17 11:08:37;;;;;;;12.93;7.70;;;;;;;7.80;79.66;102591.00;20849312;28;20045;-69
2021/12/17 11:18:39;;;;;;;13.95;8.02;;;;;;;7.91;80.80;102592.25;20854436;28;20103;-70
2021/12/17 11:28:44;;;;;;;13.15;7.68;;;;;;;8.12;76.98;102585.88;20857449;28;20049;-69
2021/12/17 11:38:57;;;;;;;11.65;6.85;;;;;;;8.19;77.78;102566.94;20867056;28;20119;-69
2021/12/17 11:49:13;;;;;;;10.52;6.20;;;;;;;8.26;75.67;102563.69;20876709;28;20045;-70
2021/12/17 11:59:23;;;;;;;8.85;5.55;;;;;;;8.39;75.04;102571.06;20867389;28;20056;-69
2021/12/17 12:10:02;;;;;;;12.30;6.20;;;;;;;8.33;74.96;102565.59;20870929;28;20040;-69
2021/12/17 12:20:04;;;;;;;12.88;6.75;;;;;;;8.31;76.49;102546.44;20869567;28;20048;-69
2021/12/17 12:30:05;;;;;;;14.00;7.55;;;;;;;8.57;76.85;102556.72;20860828;28;20057;-70
2021/12/17 12:40:15;;;;;;;11.05;6.53;;;;;;;8.67;76.49;102551.81;20863877;28;20045;-69
2021/12/17 12:50:23;;;;;;;13.90;6.95;;;;;;;8.75;75.12;102544.16;20877116;28;20049;-69
2021/12/17 13:00:50;;;;;;;15.63;7.78;;;;;;;8.34;76.29;102550.88;20859027;28;20151;-69
2021/12/17 13:10:58;;;;;;;12.98;7.40;;;;;;;8.41;76.18;102552.81;20870352;28;20053;-69
2021/12/17 13:31:34;;;;;;;10.73;6.97;;;;;;;8.42;76.05;102541.53;20860203;28;20061;-69
2021/12/17 13:41:38;;;;;;;11.40;7.03;;;;;;;8.29;75.23;102542.00;20889603;28;20365;-69
2021/12/17 13:51:40;;;;;;;13.23;7.33;;;;;;;8.30;76.78;102544.66;20873762;28;20052;-69
2021/12/17 14:01:41;;;;;;;13.23;7.50;;;;;;;8.21;75.79;102529.63;20932192;28;20122;-69
2021/12/17 14:11:44;;;;;;;12.88;7.53;;;;;;;8.18;75.59;102513.88;20854259;28;20050;-69
2021/12/17 14:22:27;;;;;;;14.77;7.90;;;;;;;8.15;76.02;102526.84;20864315;28;20131;-70
2021/12/17 14:32:29;;;;;;;12.75;7.75;;;;;;;8.06;77.08;102538.75;20855231;28;20116;-69
2021/12/17 14:42:33;;;;;;;14.55;9.10;;;;;;;7.99;77.67;102558.53;20854830;28;20045;-69
2021/12/17 15:13:29;;;;;;;14.63;8.83;;;;;;;7.60;79.31;102579.97;20853536;28;20149;-70
2021/12/17 15:23:30;;;;;;;14.75;9.48;;;;;;;7.46;80.32;102579.53;20850924;28;20044;-69
2021/12/17 15:33:34;;;;;;;19.70;10.45;;;;;;;7.53;80.08;102579.75;20848696;28;20442;-69
2021/12/17 15:43:35;;;;;;;19.23;10.15;;;;;;;7.48;79.91;102576.97;20859816;28;20102;-69
2021/12/17 15:53:36;;;;;;;15.63;10.05;;;;;;;7.38;80.61;102569.72;20853138;28;20187;-70
2021/12/17 16:03:38;;;;;;;19.58;11.18;;;;;;;7.35;80.71;102577.41;20852627;28;20099;-69
2021/12/17 16:24:00;;;;;;;21.42;11.73;;;;;;;7.22;80.94;102586.53;20862133;28;20099;-67
2021/12/17 16:34:04;;;;;;;20.77;11.75;;;;;;;7.19;80.34;102583.84;20862820;28;20053;-67
2021/12/17 16:44:09;;;;;;;21.42;11.77;;;;;;;7.10;81.53;102589.66;20861074;28;20038;-67
2021/12/17 16:54:11;;;;;;;21.13;12.10;;;;;;;6.75;84.29;102583.22;20863599;28;20278;-67
2021/12/17 17:04:13;;;;;;;20.35;12.80;;;;;;;6.73;84.58;102590.09;20857302;28;20072;-67
2021/12/17 17:14:15;;;;;;;21.55;12.73;;;;;;;6.68;84.09;102602.06;20863499;28;20049;-67
2021/12/17 17:24:17;;;;;;;23.88;13.25;;;;;;;6.48;85.02;102593.53;20870278;28;20049;-67
2021/12/17 17:34:20;;;;;;;28.92;17.17;;;;;;;6.39;85.50;102588.88;20857631;28;20049;-66
2021/12/17 17:44:22;;;;;;;42.38;26.10;;;;;;;6.48;84.50;102592.66;20859234;28;20053;-66
2021/12/17 17:54:23;;;;;;;26.85;15.63;;;;;;;6.47;83.72;102591.78;20855564;28;20417;-68
2021/12/17 18:04:25;;;;;;;34.40;20.80;;;;;;;6.49;84.27;102604.84;20866618;28;20041;-66
2021/12/17 18:14:27;;;;;;;41.15;25.50;;;;;;;6.36;84.58;102603.50;20858915;28;20048;-66
2021/12/17 18:24:28;;;;;;;30.85;16.98;;;;;;;6.36;84.64;102619.97;20955136;22;20037;-69
2021/12/17 18:34:30;;;;;;;24.88;14.65;;;;;;;6.32;85.63;102620.69;20917746;28;20470;-69
2021/12/17 18:44:32;;;;;;;18.95;11.63;;;;;;;6.30;84.11;102632.78;20942009;28;20040;-68
2021/12/17 18:54:33;;;;;;;15.48;9.90;;;;;;;6.21;85.05;102632.44;20935941;28;20473;-68
2021/12/17 19:04:35;;;;;;;17.02;10.25;;;;;;;6.07;85.91;102636.22;20942796;28;20079;-67
2021/12/17 19:14:38;;;;;;;18.10;10.93;;;;;;;6.04;84.21;102637.00;20936158;28;20045;-68
2021/12/17 19:24:40;;;;;;;15.77;9.52;;;;;;;6.06;83.99;102629.25;20932864;28;20056;-68
2021/12/17 19:34:42;;;;;;;15.90;9.50;;;;;;;5.79;85.14;102622.09;20948370;28;20420;-67
2021/12/17 19:44:44;;;;;;;15.32;10.20;;;;;;;5.80;85.31;102623.91;20933944;28;20082;-68
2021/12/17 19:54:49;;;;;;;14.43;9.32;;;;;;;5.74;83.94;102605.44;20935855;28;20102;-67
2021/12/17 20:04:50;;;;;;;13.07;8.17;;;;;;;5.64;86.15;102621.50;20962663;28;20378;-68
2021/12/17 20:14:52;;;;;;;27.63;15.13;;;;;;;5.76;86.36;102640.19;20948415;28;20473;-67
2021/12/17 20:24:54;;;;;;;15.05;8.93;;;;;;;5.69;86.80;102632.97;20968580;28;20049;-67
2021/12/17 20:34:57;;;;;;;16.13;10.18;;;;;;;5.62;87.14;102630.97;20945966;28;20114;-67
2021/12/17 20:45:01;;;;;;;19.13;11.75;;;;;;;5.65;87.10;102636.25;20945979;28;20114;-67
2021/12/17 20:55:11;;;;;;;18.35;11.30;;;;;;;5.60;87.60;102633.47;20974781;28;20503;-67
2021/12/17 21:05:13;;;;;;;19.13;12.45;;;;;;;5.62;87.49;102630.97;20970728;28;20048;-67
2021/12/17 21:15:17;;;;;;;19.88;12.57;;;;;;;5.48;88.38;102640.78;20975269;28;20044;-68
2021/12/17 21:25:19;;;;;;;17.27;9.97;;;;;;;5.62;87.27;102631.84;20974215;28;20072;-67
2021/12/17 21:35:21;;;;;;;19.83;10.88;;;;;;;5.61;87.96;102634.38;20974451;28;20139;-67
2021/12/17 21:45:23;;;;;;;19.30;11.25;;;;;;;5.52;88.84;102623.63;20972991;28;20052;-68
2021/12/17 21:55:25;;;;;;;21.35;11.70;;;;;;;5.43;88.10;102612.84;20966951;28;20105;-67
2021/12/17 22:05:32;;;;;;;20.48;13.35;;;;;;;5.38;88.22;102628.25;20970475;28;20045;-67
2021/12/17 22:15:35;;;;;;;23.45;13.85;;;;;;;5.29;88.50;102631.34;20967776;28;20564;-68
2021/12/17 22:25:38;;;;;;;23.85;13.27;;;;;;;5.19;89.91;102620.50;20971714;28;20110;-68
2021/12/17 22:35:39;;;;;;;22.95;13.52;;;;;;;5.14;89.35;102626.41;20968835;28;20102;-70
2021/12/17 22:45:43;;;;;;;27.95;15.13;;;;;;;5.10;90.05;102634.00;20968359;28;20044;-69
2021/12/17 22:55:51;;;;;;;27.60;15.25;;;;;;;4.95;90.87;102617.75;20965566;28;20048;-69
2021/12/17 23:05:54;;;;;;;29.35;14.82;;;;;;;4.78;91.19;102617.91;20966759;28;20086;-69
2021/12/17 23:15:55;;;;;;;25.48;14.55;;;;;;;4.45;92.47;102608.63;20967032;28;20041;-68
2021/12/17 23:25:58;;;;;;;30.42;16.90;;;;;;;4.35;92.81;102605.63;20964425;28;20550;-69
2021/12/17 23:36:06;;;;;;;34.58;18.63;;;;;;;4.15;93.45;102603.84;20966736;28;20048;-69
2021/12/17 23:46:09;;;;;;;31.98;17.63;;;;;;;3.99;94.08;102601.38;20962741;28;20064;-69
2021/12/17 23:56:11;;;;;;;34.72;19.73;;;;;;;3.85;94.74;102604.22;20966969;28;20445;-69
